createdAt,value
2023-02-16T00:00:36.798Z,0.81
2023-02-16T00:03:03.181Z,0.79
2023-02-16T00:05:29.546Z,0.79
2023-02-16T00:07:55.889Z,0.76
2023-02-16T00:10:22.220Z,0.72
2023-02-16T00:13:07.361Z,0.79
2023-02-16T00:15:33.677Z,0.79
2023-02-16T00:18:00.552Z,0.73
2023-02-16T00:20:26.849Z,0.67
2023-02-16T00:22:53.152Z,0.72
2023-02-16T00:25:19.505Z,0.71
2023-02-16T00:27:45.842Z,0.63
2023-02-16T00:30:12.214Z,0.67
2023-02-16T00:32:38.562Z,0.66
2023-02-16T00:35:04.905Z,0.62
2023-02-16T00:37:31.239Z,0.66
2023-02-16T00:39:57.573Z,0.65
2023-02-16T00:42:24.337Z,0.63
2023-02-16T00:44:50.672Z,0.62
2023-02-16T00:47:16.993Z,0.55
2023-02-16T00:49:43.295Z,0.57
2023-02-16T00:52:09.636Z,0.61
2023-02-16T00:54:35.951Z,0.65
2023-02-16T00:57:02.280Z,0.66
2023-02-16T00:59:28.595Z,0.59
2023-02-16T01:01:55.053Z,0.62
2023-02-16T01:04:21.566Z,0.60
2023-02-16T01:07:06.860Z,0.60
2023-02-16T01:09:51.636Z,0.67
2023-02-16T01:12:17.940Z,0.60
2023-02-16T01:14:44.258Z,0.58
2023-02-16T01:17:10.581Z,0.63
2023-02-16T01:19:36.903Z,0.55
2023-02-16T01:22:03.238Z,0.50
2023-02-16T01:24:29.563Z,0.60
2023-02-16T01:26:55.870Z,0.56
2023-02-16T01:29:22.250Z,0.42
2023-02-16T01:31:48.670Z,0.56
2023-02-16T01:34:15.102Z,0.43
2023-02-16T01:36:41.407Z,0.45
2023-02-16T01:39:07.837Z,0.51
2023-02-16T01:41:34.166Z,0.48
2023-02-16T01:44:00.492Z,0.51
2023-02-16T01:46:27.282Z,0.44
2023-02-16T01:48:53.644Z,0.47
2023-02-16T01:51:19.951Z,0.47
2023-02-16T01:53:46.620Z,0.48
2023-02-16T01:56:12.916Z,0.48
2023-02-16T01:58:39.216Z,0.46
2023-02-16T02:01:05.876Z,0.44
2023-02-16T02:03:51.051Z,0.46
2023-02-16T02:06:17.349Z,0.45
2023-02-16T02:08:43.650Z,0.53
2023-02-16T02:11:10.006Z,0.52
2023-02-16T02:13:36.308Z,0.55
2023-02-16T02:16:02.705Z,0.41
2023-02-16T02:18:29.063Z,0.43
2023-02-16T02:21:14.279Z,0.34
2023-02-16T02:23:40.652Z,0.19
2023-02-16T02:26:07.918Z,0.25
2023-02-16T02:28:34.269Z,0.34
2023-02-16T02:31:00.881Z,0.29
2023-02-16T02:33:27.262Z,0.33
2023-02-16T02:35:53.993Z,0.25
2023-02-16T02:38:20.313Z,0.27
2023-02-16T02:40:46.637Z,0.33
2023-02-16T02:43:12.952Z,0.28
2023-02-16T02:45:39.266Z,0.30
2023-02-16T02:48:05.643Z,0.28
2023-02-16T02:50:31.967Z,0.25
2023-02-16T02:52:58.291Z,0.15
2023-02-16T02:56:00.343Z,0.15
2023-02-16T02:58:45.233Z,0.17
2023-02-16T03:01:11.623Z,0.24
2023-02-16T03:03:38.021Z,0.25
2023-02-16T03:06:04.369Z,0.23
2023-02-16T03:08:30.677Z,0.20
2023-02-16T03:11:15.862Z,0.15
2023-02-16T03:13:42.195Z,0.12
2023-02-16T03:16:08.588Z,0.05
2023-02-16T03:18:53.914Z,0.16
2023-02-16T03:21:38.938Z,0.05
2023-02-16T03:24:23.953Z,0.10
2023-02-16T03:27:09.453Z,0.22
2023-02-16T03:29:35.895Z,0.23
2023-02-16T03:32:02.328Z,0.18
2023-02-16T03:34:28.698Z,0.13
2023-02-16T03:36:58.475Z,0.14
2023-02-16T03:39:24.798Z,0.21
2023-02-16T03:41:51.244Z,-0.03
2023-02-16T03:44:17.602Z,0.01
2023-02-16T03:46:44.002Z,-0.16
2023-02-16T03:49:10.332Z,-0.38
2023-02-16T03:51:36.697Z,-0.13
2023-02-16T03:54:03.006Z,-0.06
2023-02-16T03:56:29.350Z,-0.12
2023-02-16T03:58:55.718Z,-0.15
2023-02-16T04:01:22.028Z,-0.12
2023-02-16T04:03:48.442Z,-0.12
2023-02-16T04:06:14.761Z,-0.07
2023-02-16T04:08:41.151Z,-0.21
2023-02-16T04:11:27.473Z,-0.21
2023-02-16T04:13:53.835Z,-0.08
2023-02-16T04:16:20.174Z,-0.11
2023-02-16T04:18:46.535Z,-0.18
2023-02-16T04:21:12.833Z,-0.24
2023-02-16T04:23:39.211Z,-0.09
2023-02-16T04:26:05.547Z,-0.21
2023-02-16T04:28:31.885Z,-0.07
2023-02-16T04:30:58.281Z,-0.37
2023-02-16T04:33:24.728Z,-0.44
2023-02-16T04:35:51.083Z,-0.32
2023-02-16T04:38:17.431Z,-0.34
2023-02-16T04:40:43.745Z,-0.37
2023-02-16T04:43:10.055Z,-0.22
2023-02-16T04:45:36.365Z,-0.19
2023-02-16T04:48:02.702Z,-0.21
2023-02-16T04:50:29.015Z,-0.19
2023-02-16T04:52:55.336Z,-0.18
2023-02-16T04:55:21.657Z,-0.22
2023-02-16T04:57:47.990Z,-0.22
2023-02-16T05:00:14.305Z,-0.20
2023-02-16T05:02:40.627Z,-0.17
2023-02-16T05:05:06.963Z,-0.14
2023-02-16T05:07:33.305Z,-0.10
2023-02-16T05:09:59.607Z,-0.11
2023-02-16T05:12:44.858Z,-0.10
2023-02-16T05:15:11.171Z,-0.18
2023-02-16T05:17:37.496Z,-0.18
2023-02-16T05:20:03.879Z,-0.17
2023-02-16T05:22:33.588Z,-0.19
2023-02-16T05:24:59.909Z,-0.24
2023-02-16T05:27:26.225Z,-0.12
2023-02-16T05:29:52.658Z,-0.18
2023-02-16T05:32:19.031Z,-0.31
2023-02-16T05:34:45.721Z,-0.28
2023-02-16T05:37:12.107Z,-0.22
2023-02-16T05:39:38.437Z,-0.19
2023-02-16T05:42:04.777Z,-0.16
2023-02-16T05:44:31.093Z,-0.12
2023-02-16T05:46:57.458Z,-0.18
2023-02-16T05:49:23.817Z,-0.16
2023-02-16T05:51:50.120Z,-0.25
2023-02-16T05:54:19.530Z,-0.24
2023-02-16T05:56:46.228Z,-0.23
2023-02-16T05:59:12.650Z,-0.29
2023-02-16T06:01:40.985Z,-0.26
2023-02-16T06:04:07.378Z,-0.34
2023-02-16T06:06:33.707Z,-0.29
2023-02-16T06:09:00.055Z,-0.34
2023-02-16T06:11:38.849Z,-0.41
2023-02-16T06:14:05.169Z,-0.30
2023-02-16T06:16:31.517Z,-0.27
2023-02-16T06:18:57.867Z,-0.18
2023-02-16T06:21:24.181Z,-0.22
2023-02-16T06:23:50.554Z,-0.21
2023-02-16T06:26:16.863Z,-0.22
2023-02-16T06:28:43.194Z,-0.21
2023-02-16T06:31:09.638Z,-0.31
2023-02-16T06:33:36.025Z,-0.22
2023-02-16T06:36:02.345Z,-0.18
2023-02-16T06:38:28.674Z,-0.12
2023-02-16T06:40:55.004Z,-0.07
2023-02-16T06:43:21.319Z,-0.18
2023-02-16T06:45:47.610Z,-0.08
2023-02-16T06:48:13.986Z,-0.04
2023-02-16T06:50:40.297Z,-0.04
2023-02-16T06:53:06.630Z,0.03
2023-02-16T06:55:36.838Z,0.12
2023-02-16T06:58:03.240Z,0.13
2023-02-16T07:00:30.175Z,0.13
2023-02-16T07:02:56.681Z,0.14
2023-02-16T07:05:23.033Z,0.26
2023-02-16T07:07:49.353Z,0.25
2023-02-16T07:10:15.685Z,0.21
2023-02-16T07:12:42.002Z,0.25
2023-02-16T07:15:08.354Z,0.29
2023-02-16T07:17:34.656Z,0.29
2023-02-16T07:20:00.970Z,0.24
2023-02-16T07:22:27.273Z,0.23
2023-02-16T07:24:56.216Z,0.30
2023-02-16T07:27:22.524Z,0.30
2023-02-16T07:29:48.830Z,0.28
2023-02-16T07:32:15.200Z,0.36
2023-02-16T07:34:41.826Z,0.45
2023-02-16T07:37:08.142Z,0.45
2023-02-16T07:39:34.513Z,0.50
2023-02-16T07:42:00.853Z,0.55
2023-02-16T07:44:27.169Z,0.46
2023-02-16T07:46:53.467Z,0.57
2023-02-16T07:49:19.977Z,0.65
2023-02-16T07:51:46.311Z,0.70
2023-02-16T07:54:12.692Z,0.90
2023-02-16T07:56:39.020Z,0.82
2023-02-16T07:59:05.335Z,1.13
2023-02-16T08:01:31.657Z,1.16
2023-02-16T08:03:57.989Z,1.46
2023-02-16T08:06:24.292Z,1.56
2023-02-16T08:08:50.639Z,1.62
2023-02-16T08:11:16.963Z,1.58
2023-02-16T08:13:43.304Z,1.80
2023-02-16T08:16:09.697Z,1.90
2023-02-16T08:18:36.049Z,1.68
2023-02-16T08:21:04.656Z,1.82
2023-02-16T08:23:31.642Z,1.82
2023-02-16T08:25:59.258Z,2.26
2023-02-16T08:28:29.000Z,2.38
2023-02-16T08:30:55.534Z,2.40
2023-02-16T08:33:21.887Z,2.58
2023-02-16T08:35:48.534Z,2.75
2023-02-16T08:38:17.229Z,3.10
2023-02-16T08:40:43.581Z,2.86
2023-02-16T08:43:09.873Z,2.85
2023-02-16T08:45:36.203Z,3.08
2023-02-16T08:48:02.553Z,3.08
2023-02-16T08:50:29.070Z,3.51
2023-02-16T08:52:55.406Z,3.63
2023-02-16T08:55:23.116Z,3.36
2023-02-16T08:57:49.443Z,3.51
2023-02-16T09:00:34.163Z,3.79
2023-02-16T09:03:00.895Z,3.76
2023-02-16T09:05:28.368Z,4.10
2023-02-16T09:07:54.700Z,4.30
2023-02-16T09:10:24.874Z,4.52
2023-02-16T09:12:51.178Z,4.55
2023-02-16T09:15:17.539Z,4.39
2023-02-16T09:17:43.857Z,4.44
2023-02-16T09:20:10.242Z,4.57
2023-02-16T09:22:36.935Z,4.85
2023-02-16T09:25:03.263Z,5.00
2023-02-16T09:27:29.592Z,5.35
2023-02-16T09:29:55.900Z,5.09
2023-02-16T09:32:22.957Z,5.28
2023-02-16T09:34:50.341Z,5.61
2023-02-16T09:37:16.673Z,5.79
2023-02-16T09:39:43.007Z,5.58
2023-02-16T09:42:09.320Z,5.65
2023-02-16T09:44:38.091Z,5.79
2023-02-16T09:47:04.972Z,5.87
2023-02-16T09:49:32.528Z,5.45
2023-02-16T09:51:58.864Z,5.62
2023-02-16T09:54:25.178Z,5.54
2023-02-16T09:56:51.547Z,6.05
2023-02-16T09:59:18.629Z,5.99
2023-02-16T10:01:45.642Z,6.03
2023-02-16T10:04:12.149Z,6.46
2023-02-16T10:06:40.454Z,6.70
2023-02-16T10:09:06.772Z,6.18
2023-02-16T10:11:39.023Z,6.38
2023-02-16T10:14:05.356Z,6.63
2023-02-16T10:16:31.681Z,6.61
2023-02-16T10:18:57.993Z,6.36
2023-02-16T10:21:24.331Z,6.77
2023-02-16T10:23:50.899Z,6.71
2023-02-16T10:26:18.118Z,6.86
2023-02-16T10:28:44.597Z,7.12
2023-02-16T10:31:11.020Z,7.33
2023-02-16T10:33:38.358Z,7.07
2023-02-16T10:36:04.736Z,7.29
2023-02-16T10:38:32.057Z,7.39
2023-02-16T10:40:58.442Z,7.42
2023-02-16T10:43:24.763Z,7.90
2023-02-16T10:45:52.392Z,7.55
2023-02-16T10:48:20.875Z,7.50
2023-02-16T10:50:47.922Z,7.30
2023-02-16T10:53:14.272Z,7.75
2023-02-16T10:55:40.674Z,8.15
2023-02-16T10:58:07.394Z,8.13
2023-02-16T11:00:33.715Z,8.50
2023-02-16T11:03:00.036Z,7.76
2023-02-16T11:05:26.411Z,7.23
2023-02-16T11:07:52.801Z,7.95
2023-02-16T11:10:19.126Z,7.94
2023-02-16T11:12:45.463Z,8.26
2023-02-16T11:15:12.146Z,7.95
2023-02-16T11:17:38.474Z,8.10
2023-02-16T11:20:05.813Z,8.07
2023-02-16T11:22:32.162Z,8.66
2023-02-16T11:24:59.751Z,8.58
2023-02-16T11:27:26.408Z,8.88
2023-02-16T11:29:52.789Z,8.93
2023-02-16T11:32:19.199Z,8.93
2023-02-16T11:34:45.805Z,8.42
2023-02-16T11:37:12.358Z,8.92
2023-02-16T11:39:38.679Z,8.44
2023-02-16T11:42:04.997Z,8.70
2023-02-16T11:44:31.523Z,9.02
2023-02-16T11:46:57.875Z,9.38
2023-02-16T11:49:24.227Z,9.01
2023-02-16T11:51:51.204Z,9.35
2023-02-16T11:54:17.572Z,9.17
2023-02-16T11:56:46.190Z,9.24
2023-02-16T11:59:12.864Z,9.31
2023-02-16T12:01:39.211Z,9.30
2023-02-16T12:04:05.727Z,9.17
2023-02-16T12:06:32.172Z,9.08
2023-02-16T12:08:58.549Z,9.40
2023-02-16T12:11:26.337Z,9.47
2023-02-16T12:13:52.721Z,9.51
2023-02-16T12:16:19.061Z,9.44
2023-02-16T12:18:45.395Z,9.60
2023-02-16T12:21:12.196Z,9.65
2023-02-16T12:23:38.524Z,9.58
2023-02-16T12:26:05.343Z,9.60
2023-02-16T12:28:32.461Z,9.42
2023-02-16T12:30:58.820Z,9.44
2023-02-16T12:33:26.241Z,9.66
2023-02-16T12:35:52.562Z,9.54
2023-02-16T12:38:18.901Z,9.66
2023-02-16T12:40:45.280Z,9.81
2023-02-16T12:43:11.633Z,9.62
2023-02-16T12:45:38.049Z,9.54
2023-02-16T12:48:04.408Z,9.63
2023-02-16T12:50:30.777Z,9.49
2023-02-16T12:52:57.160Z,9.47
2023-02-16T12:55:23.576Z,9.47
2023-02-16T12:57:49.867Z,9.54
2023-02-16T13:00:17.859Z,9.60
2023-02-16T13:02:44.724Z,9.39
2023-02-16T13:05:11.099Z,9.19
2023-02-16T13:07:37.413Z,9.05
2023-02-16T13:10:03.778Z,8.97
2023-02-16T13:12:31.460Z,9.08
2023-02-16T13:14:57.786Z,9.16
2023-02-16T13:17:24.114Z,9.17
2023-02-16T13:19:52.040Z,8.92
2023-02-16T13:22:18.356Z,8.92
2023-02-16T13:24:45.519Z,9.33
2023-02-16T13:27:11.825Z,9.30
2023-02-16T13:29:38.437Z,9.47
2023-02-16T13:32:04.895Z,9.45
2023-02-16T13:34:31.314Z,9.41
2023-02-16T13:36:58.211Z,9.14
2023-02-16T13:39:24.557Z,8.71
2023-02-16T13:41:52.185Z,8.73
2023-02-16T13:44:18.497Z,8.65
2023-02-16T13:46:45.874Z,8.67
2023-02-16T13:49:12.216Z,8.61
2023-02-16T13:51:38.536Z,8.59
2023-02-16T13:54:04.904Z,8.68
2023-02-16T13:56:31.208Z,8.70
2023-02-16T13:58:58.238Z,8.65
2023-02-16T14:01:24.618Z,8.82
2023-02-16T14:03:50.981Z,8.49
2023-02-16T14:06:17.388Z,8.64
2023-02-16T14:08:44.525Z,8.55
2023-02-16T14:11:10.935Z,8.63
2023-02-16T14:13:37.256Z,8.49
2023-02-16T14:16:04.049Z,8.48
2023-02-16T14:18:31.286Z,8.38
2023-02-16T14:20:57.589Z,8.40
2023-02-16T14:23:23.936Z,8.49
2023-02-16T14:25:50.268Z,8.40
2023-02-16T14:28:16.598Z,8.27
2023-02-16T14:30:43.052Z,8.21
2023-02-16T14:33:09.638Z,8.29
2023-02-16T14:35:35.994Z,8.03
2023-02-16T14:38:02.305Z,8.10
2023-02-16T14:40:28.608Z,8.12
2023-02-16T14:42:55.063Z,7.98
2023-02-16T14:45:21.428Z,7.92
2023-02-16T14:47:47.757Z,7.73
2023-02-16T14:50:14.173Z,7.67
2023-02-16T14:52:40.678Z,7.62
2023-02-16T14:55:07.280Z,7.64
2023-02-16T14:57:33.900Z,7.58
2023-02-16T15:00:01.088Z,7.61
2023-02-16T15:02:27.509Z,7.61
2023-02-16T15:04:53.881Z,7.69
2023-02-16T15:07:21.641Z,7.72
2023-02-16T15:09:48.022Z,7.51
2023-02-16T15:12:23.559Z,7.55
2023-02-16T15:14:49.925Z,7.59
2023-02-16T15:17:16.278Z,7.37
2023-02-16T15:19:44.001Z,7.40
2023-02-16T15:22:10.541Z,7.18
2023-02-16T15:24:36.899Z,7.06
2023-02-16T15:27:03.743Z,7.06
2023-02-16T15:29:30.416Z,7.01
2023-02-16T15:31:57.014Z,6.91
2023-02-16T15:34:23.341Z,6.86
2023-02-16T15:36:49.684Z,6.79
2023-02-16T15:39:16.007Z,6.75
2023-02-16T15:41:42.355Z,6.71
2023-02-16T15:44:08.667Z,6.63
2023-02-16T15:46:35.041Z,6.43
2023-02-16T15:49:01.529Z,6.43
2023-02-16T15:51:27.868Z,6.61
2023-02-16T15:53:54.263Z,6.53
2023-02-16T15:56:20.832Z,6.49
2023-02-16T15:58:47.798Z,6.22
2023-02-16T16:01:17.130Z,6.07
2023-02-16T16:03:46.683Z,6.06
2023-02-16T16:06:13.321Z,6.01
2023-02-16T16:08:39.652Z,5.82
2023-02-16T16:11:06.389Z,5.73
2023-02-16T16:13:32.984Z,5.60
2023-02-16T16:16:01.959Z,5.65
2023-02-16T16:18:29.308Z,5.48
2023-02-16T16:20:55.605Z,5.29
2023-02-16T16:23:22.429Z,5.27
2023-02-16T16:25:48.769Z,5.23
2023-02-16T16:28:15.224Z,5.31
2023-02-16T16:30:44.000Z,5.11
2023-02-16T16:33:10.402Z,5.19
2023-02-16T16:35:36.822Z,5.04
2023-02-16T16:38:03.158Z,4.97
2023-02-16T16:40:29.465Z,4.94
2023-02-16T16:42:55.802Z,4.77
2023-02-16T16:45:22.144Z,4.68
2023-02-16T16:47:48.506Z,4.80
2023-02-16T16:50:14.993Z,4.76
2023-02-16T16:52:41.641Z,4.63
2023-02-16T16:55:07.946Z,4.57
2023-02-16T16:57:34.268Z,4.51
2023-02-16T17:00:00.600Z,4.57
2023-02-16T17:02:26.910Z,4.52
2023-02-16T17:04:53.321Z,4.45
2023-02-16T17:07:19.669Z,4.38
2023-02-16T17:09:46.032Z,4.28
2023-02-16T17:12:12.371Z,4.34
2023-02-16T17:14:38.718Z,4.32
2023-02-16T17:17:08.700Z,4.25
2023-02-16T17:19:38.238Z,4.41
2023-02-16T17:22:04.573Z,4.38
2023-02-16T17:24:30.892Z,4.19
2023-02-16T17:26:57.212Z,4.27
2023-02-16T17:29:23.753Z,4.23
2023-02-16T17:31:50.777Z,4.26
2023-02-16T17:34:17.277Z,4.13
2023-02-16T17:36:43.645Z,4.30
2023-02-16T17:39:09.997Z,4.26
2023-02-16T17:41:36.319Z,4.29
2023-02-16T17:44:04.171Z,4.28
2023-02-16T17:46:30.534Z,4.26
2023-02-16T17:48:56.873Z,4.18
2023-02-16T17:51:23.193Z,4.05
2023-02-16T17:53:49.511Z,4.12
2023-02-16T17:56:15.862Z,4.22
2023-02-16T17:58:42.198Z,4.26
2023-02-16T18:01:08.543Z,4.14
2023-02-16T18:03:34.901Z,4.19
2023-02-16T18:06:02.935Z,4.24
2023-02-16T18:08:29.395Z,4.29
2023-02-16T18:11:01.988Z,4.39
2023-02-16T18:13:28.504Z,4.35
2023-02-16T18:15:54.819Z,4.32
2023-02-16T18:18:21.155Z,4.26
2023-02-16T18:20:47.474Z,4.30
2023-02-16T18:23:14.676Z,4.35
2023-02-16T18:25:43.172Z,4.26
2023-02-16T18:28:09.485Z,4.23
2023-02-16T18:30:35.904Z,4.32
2023-02-16T18:33:02.343Z,4.19
2023-02-16T18:35:28.697Z,4.06
2023-02-16T18:37:55.038Z,4.08
2023-02-16T18:40:21.421Z,3.98
2023-02-16T18:42:47.923Z,4.07
2023-02-16T18:45:14.393Z,4.08
2023-02-16T18:47:40.756Z,3.99
2023-02-16T18:50:07.069Z,4.14
2023-02-16T18:52:33.435Z,4.11
2023-02-16T18:54:59.869Z,3.93
2023-02-16T18:57:26.257Z,3.78
2023-02-16T18:59:52.603Z,3.89
2023-02-16T19:02:18.949Z,3.97
2023-02-16T19:04:45.442Z,3.98
2023-02-16T19:07:11.838Z,4.06
2023-02-16T19:09:38.223Z,4.06
2023-02-16T19:12:04.591Z,4.05
2023-02-16T19:14:30.911Z,4.01
2023-02-16T19:16:57.227Z,3.90
2023-02-16T19:19:23.516Z,3.92
2023-02-16T19:21:49.847Z,3.99
2023-02-16T19:24:16.205Z,4.06
2023-02-16T19:26:42.564Z,4.07
2023-02-16T19:29:08.883Z,3.77
2023-02-16T19:31:39.355Z,3.77
2023-02-16T19:34:05.722Z,3.80
2023-02-16T19:36:33.588Z,3.86
2023-02-16T19:38:59.945Z,3.88
2023-02-16T19:43:58.311Z,4.01
2023-02-16T19:46:24.658Z,4.00
2023-02-16T19:48:51.089Z,4.01
2023-02-16T19:51:17.404Z,4.04
2023-02-16T19:53:43.926Z,4.01
2023-02-16T19:56:10.265Z,3.96
2023-02-16T19:58:36.568Z,4.05
2023-02-16T20:01:02.869Z,4.08
2023-02-16T20:03:31.187Z,4.09
2023-02-16T20:05:57.507Z,4.16
2023-02-16T20:08:23.894Z,4.23
2023-02-16T20:10:50.263Z,4.03
2023-02-16T20:13:16.589Z,3.96
2023-02-16T20:15:42.901Z,4.01
2023-02-16T20:18:09.276Z,3.97
2023-02-16T20:20:36.045Z,4.02
2023-02-16T20:23:02.350Z,4.14
2023-02-16T20:25:28.939Z,4.09
2023-02-16T20:27:55.316Z,4.01
2023-02-16T20:30:25.333Z,4.01
2023-02-16T20:32:51.743Z,4.12
2023-02-16T20:35:18.052Z,4.10
2023-02-16T20:37:44.544Z,4.26
2023-02-16T20:40:10.859Z,4.17
2023-02-16T20:42:41.160Z,4.34
2023-02-16T20:45:07.457Z,4.39
2023-02-16T20:47:33.777Z,4.33
2023-02-16T20:50:00.139Z,4.38
2023-02-16T20:52:26.467Z,4.40
2023-02-16T20:54:52.814Z,4.43
2023-02-16T20:57:26.758Z,4.51
2023-02-16T20:59:53.713Z,4.56
2023-02-16T21:02:20.107Z,4.51
2023-02-16T21:04:46.463Z,4.61
2023-02-16T21:07:12.773Z,4.62
2023-02-16T21:09:39.196Z,4.53
2023-02-16T21:12:05.497Z,4.63
2023-02-16T21:14:31.861Z,4.66
2023-02-16T21:16:58.231Z,4.63
2023-02-16T21:19:24.556Z,4.70
2023-02-16T21:21:50.879Z,4.76
2023-02-16T21:24:17.205Z,4.73
2023-02-16T21:26:43.737Z,4.77
2023-02-16T21:29:10.064Z,4.71
2023-02-16T21:31:36.572Z,4.86
2023-02-16T21:34:02.959Z,4.95
2023-02-16T21:36:29.340Z,4.94
2023-02-16T21:38:55.712Z,4.96
2023-02-16T21:41:25.272Z,5.01
2023-02-16T21:43:51.709Z,5.02
2023-02-16T21:46:18.011Z,4.92
2023-02-16T21:48:50.538Z,4.97
2023-02-16T21:51:16.926Z,5.02
2023-02-16T21:53:43.322Z,5.07
2023-02-16T21:56:19.966Z,5.14
2023-02-16T21:58:46.301Z,5.07
2023-02-16T22:01:12.746Z,5.13
2023-02-16T22:03:39.133Z,5.17
2023-02-16T22:06:05.744Z,5.23
2023-02-16T22:08:32.472Z,5.20
2023-02-16T22:10:58.826Z,5.23
2023-02-16T22:13:25.153Z,5.14
2023-02-16T22:15:51.463Z,5.19
2023-02-16T22:18:17.780Z,5.29
2023-02-16T22:20:44.106Z,5.33
2023-02-16T22:23:10.445Z,5.26
2023-02-16T22:25:36.779Z,5.22
2023-02-16T22:28:03.084Z,5.15
2023-02-16T22:30:29.494Z,5.20
2023-02-16T22:32:55.848Z,5.12
2023-02-16T22:35:22.210Z,5.07
2023-02-16T22:37:48.506Z,5.16
2023-02-16T22:40:14.900Z,5.10
2023-02-16T22:42:41.212Z,5.20
2023-02-16T22:45:07.549Z,5.31
2023-02-16T22:47:33.868Z,5.35
2023-02-16T22:50:00.197Z,5.42
2023-02-16T22:52:27.124Z,5.43
2023-02-16T22:54:53.523Z,5.25
2023-02-16T22:57:19.965Z,5.39
2023-02-16T22:59:46.316Z,5.44
2023-02-16T23:02:12.658Z,5.53
2023-02-16T23:04:39.082Z,5.52
2023-02-16T23:07:06.083Z,5.40
2023-02-16T23:09:32.415Z,5.45
2023-02-16T23:11:58.761Z,5.48
2023-02-16T23:14:25.182Z,5.44
2023-02-16T23:16:51.585Z,5.47
2023-02-16T23:19:17.971Z,5.45
2023-02-16T23:21:44.313Z,5.52
2023-02-16T23:24:10.620Z,5.61
2023-02-16T23:26:36.963Z,5.61
2023-02-16T23:29:03.358Z,5.70
2023-02-16T23:31:29.781Z,5.71
2023-02-16T23:33:56.163Z,5.77
2023-02-16T23:36:22.479Z,5.56
2023-02-16T23:38:48.807Z,5.69
2023-02-16T23:41:15.105Z,5.73
2023-02-16T23:43:41.438Z,5.74
2023-02-16T23:46:08.118Z,5.76
2023-02-16T23:48:34.701Z,5.69
2023-02-16T23:51:01.032Z,5.71
2023-02-16T23:53:27.351Z,5.58
2023-02-16T23:55:53.668Z,5.57
2023-02-16T23:58:19.990Z,5.56
